Time;durP1;ratioP1;P1;durP2;ratioP2;P2;SDS_P1;SDS_P2;PMS_P1;PMS_P2;Temp;Humidity;BMP_temperature;BMP_pressure;BME280_temperature;BME280_humidity;BME280_pressure;Samples;Min_cycle;Max_cycle;Signal;HPM_P1;HPM_P2
2023/06/21 00:01:19;;;;;;;;;5.00;4.00;;;;;23.88;100.00;101042.88;5079835;28;66350;-75
2023/06/21 00:03:44;;;;;;;;;4.00;4.00;;;;;23.85;100.00;101040.28;5083125;28;45623;-75
2023/06/21 00:06:09;;;;;;;;;4.67;4.67;;;;;23.82;100.00;101045.81;5082136;28;57186;-76
2023/06/21 00:08:35;;;;;;;;;5.00;4.00;;;;;23.79;100.00;101046.81;5062523;28;68258;-74
2023/06/21 00:11:00;;;;;;;;;5.33;5.33;;;;;23.78;100.00;101038.78;5075783;28;45315;-75
2023/06/21 00:13:25;;;;;;;;;4.67;4.00;;;;;23.75;100.00;101039.78;5080664;28;63678;-76
2023/06/21 00:15:51;;;;;;;;;5.00;2.67;;;;;23.74;100.00;101031.75;5073284;28;45499;-75
2023/06/21 00:18:16;;;;;;;;;6.00;4.67;;;;;23.72;100.00;101029.13;5080417;28;69732;-76
2023/06/21 00:20:41;;;;;;;;;6.67;6.67;;;;;23.70;100.00;101036.41;5070977;28;45439;-76
2023/06/21 00:23:08;;;;;;;;;5.00;5.00;;;;;23.71;100.00;101037.28;5081801;28;63618;-75
2023/06/21 00:25:34;;;;;;;;;5.67;5.67;;;;;23.70;100.00;101043.59;5056537;28;45474;-76
2023/06/21 00:27:59;;;;;;;;;5.00;5.00;;;;;23.70;100.00;101048.97;5080590;28;45754;-75
2023/06/21 00:30:24;;;;;;;;;6.67;6.00;;;;;23.67;100.00;101041.91;5078390;28;64822;-76
2023/06/21 00:32:50;;;;;;;;;4.00;4.00;;;;;23.64;100.00;101044.72;5074963;28;60084;-75
2023/06/21 00:35:15;;;;;;;;;6.67;5.00;;;;;23.62;100.00;101043.88;5075405;28;62072;-75
2023/06/21 00:37:40;;;;;;;;;4.67;3.67;;;;;23.61;100.00;101044.81;5078972;28;46889;-75
2023/06/21 00:40:11;;;;;;;;;10.00;4.00;;;;;23.57;100.00;101048.56;5077533;28;61063;-76
2023/06/21 00:42:37;;;;;;;;;5.00;5.00;;;;;23.55;100.00;101047.78;5062152;28;45434;-76
2023/06/21 00:45:03;;;;;;;;;5.67;5.33;;;;;23.53;100.00;101052.31;5078704;28;45185;-75
2023/06/21 00:47:30;;;;;;;;;6.00;4.00;;;;;23.50;100.00;101049.75;5078577;28;46589;-75
2023/06/21 00:49:57;;;;;;;;;8.67;4.00;;;;;23.47;100.00;101052.56;5078292;28;45273;-75
2023/06/21 00:52:23;;;;;;;;;5.33;4.00;;;;;23.45;100.00;101049.94;5079001;28;45312;-75
2023/06/21 00:54:48;;;;;;;;;5.00;5.00;;;;;23.43;100.00;101056.31;5072970;28;45453;-76
2023/06/21 00:57:14;;;;;;;;;4.00;3.00;;;;;23.41;100.00;101061.78;5058693;28;70700;-75
2023/06/21 00:59:39;;;;;;;;;3.00;3.00;;;;;23.37;100.00;101057.44;5077567;28;66451;-75
2023/06/21 01:02:05;;;;;;;;;6.00;4.33;;;;;23.37;100.00;101064.63;5078369;28;61933;-75
2023/06/21 01:04:32;;;;;;;;;6.00;5.00;;;;;23.35;100.00;101066.53;5078762;28;45222;-74
2023/06/21 01:07:16;;;;;;;;;5.00;3.67;;;;;23.32;100.00;101064.81;5076588;28;46571;-77
2023/06/21 01:10:02;;;;;;;;;4.00;4.00;;;;;23.29;100.00;101064.94;5077480;28;45690;-75
2023/06/21 01:12:44;;;;;;;;;3.00;3.00;;;;;23.24;100.00;101067.81;5077456;28;45614;-75
2023/06/21 01:15:14;;;;;;;;;3.67;3.67;;;;;23.19;100.00;101077.88;5061202;28;45451;-76
2023/06/21 01:17:40;;;;;;;;;4.67;3.67;;;;;23.13;100.00;101069.16;5060454;28;45455;-76
2023/06/21 01:20:13;;;;;;;;;5.00;3.00;;;;;23.10;100.00;101080.91;5060343;28;45539;-75
2023/06/21 01:22:55;;;;;;;;;4.00;4.00;;;;;23.08;100.00;101085.47;5078083;28;45331;-75
2023/06/21 01:25:29;;;;;;;;;3.00;3.00;;;;;23.07;100.00;101090.94;5058481;28;47248;-75
2023/06/21 01:28:09;;;;;;;;;5.00;3.00;;;;;23.03;100.00;101084.78;5066548;28;46856;-75
2023/06/21 01:30:34;;;;;;;;;4.33;4.33;;;;;22.98;100.00;101076.84;5053728;28;45257;-74
2023/06/21 01:33:00;;;;;;;;;4.00;3.00;;;;;22.98;100.00;101084.94;5058831;28;62449;-76
2023/06/21 01:35:26;;;;;;;;;4.00;4.00;;;;;22.97;100.00;101085.88;5061449;28;45606;-75
2023/06/21 01:37:51;;;;;;;;;3.67;3.67;;;;;22.96;100.00;101083.25;5076950;28;60101;-74
2023/06/21 01:40:17;;;;;;;;;4.00;3.00;;;;;22.93;100.00;101075.25;5044918;28;45442;-75
2023/06/21 01:42:42;;;;;;;;;3.00;3.00;;;;;22.95;100.00;101095.81;5076104;28;45389;-75
2023/06/21 01:45:08;;;;;;;;;2.00;2.00;;;;;22.97;100.00;101098.47;5062068;28;45525;-76
2023/06/21 01:47:35;;;;;;;;;3.00;3.00;;;;;22.98;100.00;101105.59;5068852;28;46095;-75
2023/06/21 01:50:02;;;;;;;;;5.67;3.00;;;;;22.98;100.00;101106.47;5075202;28;45209;-74
2023/06/21 01:52:28;;;;;;;;;4.00;3.67;;;;;22.95;100.00;101105.69;5054100;28;45548;-75
2023/06/21 01:54:53;;;;;;;;;2.33;2.33;;;;;22.96;100.00;101110.19;5065091;28;61121;-75
2023/06/21 01:57:19;;;;;;;;;3.00;3.00;;;;;22.91;100.00;101113.03;5055857;28;70908;-75
2023/06/21 01:59:45;;;;;;;;;3.00;3.00;;;;;22.92;100.00;101112.09;5076507;28;66950;-75
2023/06/21 02:02:10;;;;;;;;;3.00;3.00;;;;;22.91;100.00;101123.81;5072746;28;45355;-75
2023/06/21 02:04:38;;;;;;;;;4.00;4.00;;;;;22.89;100.00;101132.84;5053418;28;45458;-75
2023/06/21 02:07:05;;;;;;;;;5.00;4.00;;;;;22.90;100.00;101130.09;5057269;28;45489;-75
2023/06/21 02:09:31;;;;;;;;;3.00;3.00;;;;;22.92;100.00;101130.06;5057314;28;45470;-75
2023/06/21 02:11:56;;;;;;;;;5.00;4.00;;;;;22.87;100.00;101127.50;5058669;28;45286;-75
2023/06/21 02:14:22;;;;;;;;;3.00;3.00;;;;;22.85;100.00;101129.38;5068713;28;45544;-74
2023/06/21 02:16:48;;;;;;;;;3.00;3.00;;;;;22.82;100.00;101137.53;5075308;28;45408;-75
2023/06/21 02:19:13;;;;;;;;;2.00;2.00;;;;;22.81;100.00;101135.78;5060170;28;67512;-76
2023/06/21 02:21:39;;;;;;;;;2.33;2.33;;;;;22.82;100.00;101139.38;5073630;28;45277;-75
2023/06/21 02:24:04;;;;;;;;;3.00;3.00;;;;;22.80;100.00;101131.34;5065727;28;45334;-75
2023/06/21 02:26:30;;;;;;;;;4.00;4.00;;;;;22.80;100.00;101134.03;5075843;28;45947;-76
2023/06/21 02:28:55;;;;;;;;;2.00;2.00;;;;;22.80;100.00;101134.03;5069814;28;65205;-74
2023/06/21 02:31:20;;;;;;;;;4.00;4.00;;;;;22.80;100.00;101131.34;5076301;28;45485;-75
2023/06/21 02:33:46;;;;;;;;;3.67;3.67;;;;;22.80;100.00;101135.81;5074988;28;45349;-75
2023/06/21 02:36:12;;;;;;;;;3.33;2.00;;;;;22.78;100.00;101138.56;5073362;28;47157;-75
2023/06/21 02:38:37;;;;;;;;;4.67;4.67;;;;;22.77;100.00;101138.63;5069182;28;45281;-75
2023/06/21 02:41:02;;;;;;;;;4.33;3.00;;;;;22.77;100.00;101133.25;5075188;28;64264;-77
2023/06/21 02:43:28;;;;;;;;;6.00;3.00;;;;;22.76;100.00;101140.47;5072722;28;45561;-76
2023/06/21 02:45:53;;;;;;;;;3.00;3.00;;;;;22.73;100.00;101133.34;5048549;28;69800;-74
2023/06/21 02:48:18;;;;;;;;;3.00;3.00;;;;;22.70;100.00;101133.47;5071284;28;45279;-75
2023/06/21 02:50:44;;;;;;;;;4.00;4.00;;;;;22.68;100.00;101132.63;5063975;28;61640;-76
2023/06/21 02:53:09;;;;;;;;;2.67;2.67;;;;;22.64;100.00;101135.50;5069318;28;58281;-75
2023/06/21 02:55:34;;;;;;;;;4.00;4.00;;;;;22.56;100.00;101134.88;5062498;28;64857;-75
2023/06/21 02:58:00;;;;;;;;;3.00;3.00;;;;;22.47;100.00;101139.63;5056143;28;67766;-76
2023/06/21 03:00:31;;;;;;;;;5.33;4.00;;;;;22.46;100.00;101135.16;5071672;28;59479;-75
2023/06/21 03:03:05;;;;;;;;;3.00;3.00;;;;;22.44;100.00;101134.34;5063258;28;45479;-75
2023/06/21 03:05:33;;;;;;;;;3.00;3.00;;;;;22.40;100.00;101146.13;5073948;28;45827;-74
2023/06/21 03:08:00;;;;;;;;;4.00;4.00;;;;;22.39;100.00;101144.38;5072648;28;45355;-75
2023/06/21 03:10:26;;;;;;;;;5.00;4.00;;;;;22.38;100.00;101145.31;5070341;28;45313;-76
2023/06/21 03:12:51;;;;;;;;;5.33;3.67;;;;;22.36;100.00;101147.16;5076591;28;45482;-75
2023/06/21 03:15:17;;;;;;;;;4.00;4.00;;;;;22.34;100.00;101150.84;5065682;28;70890;-75
2023/06/21 03:17:43;;;;;;;;;2.67;2.67;;;;;22.31;100.00;101151.81;5075729;28;45550;-75
2023/06/21 03:20:12;;;;;;;;;3.33;3.00;;;;;22.29;100.00;101151.00;5072208;28;45373;-76
2023/06/21 03:22:42;;;;;;;;;3.67;3.67;;;;;22.28;100.00;101148.38;5068923;28;45521;-75
2023/06/21 03:25:11;;;;;;;;;4.00;4.00;;;;;22.30;100.00;101155.44;5072448;28;45426;-77
2023/06/21 03:27:37;;;;;;;;;5.33;4.33;;;;;22.29;100.00;101156.38;5066439;28;45400;-75
2023/06/21 03:30:04;;;;;;;;;5.00;4.00;;;;;22.25;100.00;101152.03;5066465;28;61562;-75
2023/06/21 03:32:29;;;;;;;;;6.00;4.00;;;;;22.23;100.00;101156.56;5063198;28;45321;-75
2023/06/21 03:34:54;;;;;;;;;6.67;5.00;;;;;22.21;100.00;101155.72;5065482;28;46175;-75
2023/06/21 03:37:20;;;;;;;;;3.67;3.67;;;;;22.17;100.00;101154.97;5073373;28;60773;-75
2023/06/21 03:39:45;;;;;;;;;5.00;4.00;;;;;22.14;100.00;101155.06;5072817;28;64102;-75
2023/06/21 03:42:11;;;;;;;;;3.33;3.33;;;;;22.12;100.00;101161.44;5070981;28;62919;-76
2023/06/21 03:44:37;;;;;;;;;3.33;3.00;;;;;22.11;100.00;101167.75;5070286;28;46555;-75
2023/06/21 03:47:02;;;;;;;;;3.33;3.33;;;;;22.10;100.00;101165.91;5063697;28;67167;-74
2023/06/21 03:49:27;;;;;;;;;4.00;4.00;;;;;22.11;100.00;101173.13;5070440;28;45146;-75
2023/06/21 03:51:53;;;;;;;;;3.00;3.00;;;;;22.13;100.00;101182.88;5061512;28;60807;-75
2023/06/21 03:54:18;;;;;;;;;5.00;4.00;;;;;22.14;100.00;101189.13;5067667;28;68219;-76
2023/06/21 03:56:44;;;;;;;;;4.00;4.00;;;;;22.12;100.00;101201.75;5075712;28;45198;-76
2023/06/21 03:59:09;;;;;;;;;5.00;3.33;;;;;22.13;100.00;101200.84;5063642;28;45296;-75
2023/06/21 04:01:35;;;;;;;;;7.00;4.00;;;;;22.11;100.00;101211.66;5062720;28;60594;-76
2023/06/21 04:04:00;;;;;;;;;4.67;4.67;;;;;22.09;100.00;101215.25;5062612;28;68005;-76
2023/06/21 04:06:25;;;;;;;;;4.00;4.00;;;;;22.08;100.00;101216.19;5077646;28;65785;-75
2023/06/21 04:08:51;;;;;;;;;3.67;3.67;;;;;22.08;100.00;101211.69;5075863;28;45340;-76
2023/06/21 04:11:16;;;;;;;;;4.00;4.00;;;;;22.06;100.00;101228.81;5075223;28;45256;-76
2023/06/21 04:13:42;;;;;;;;;4.00;4.00;;;;;22.06;100.00;101226.13;5077183;28;70326;-75
2023/06/21 04:16:07;;;;;;;;;4.00;4.00;;;;;22.05;100.00;101243.16;5074749;28;45277;-75
2023/06/21 04:18:32;;;;;;;;;5.00;3.00;;;;;22.03;100.00;101240.53;5078059;28;59602;-76
2023/06/21 04:20:58;;;;;;;;;4.00;4.00;;;;;22.03;100.00;101250.41;5074145;28;45503;-75
2023/06/21 04:23:26;;;;;;;;;5.67;5.00;;;;;22.03;100.00;101253.09;5072279;28;45587;-74
2023/06/21 04:25:51;;;;;;;;;5.33;5.33;;;;;22.01;100.00;101252.28;5068651;28;45313;-75
2023/06/21 04:28:17;;;;;;;;;7.00;5.00;;;;;21.98;100.00;101248.72;5075443;28;45442;-75
2023/06/21 04:30:42;;;;;;;;;5.00;5.00;;;;;21.98;100.00;101255.91;5063305;28;60985;-74
2023/06/21 04:33:08;;;;;;;;;5.00;5.00;;;;;21.96;100.00;101255.97;5071840;28;46839;-75
2023/06/21 04:35:33;;;;;;;;;5.67;4.00;;;;;21.96;100.00;101260.47;5076757;28;61378;-75
2023/06/21 04:38:00;;;;;;;;;4.33;4.33;;;;;21.97;100.00;101271.19;5060205;28;64287;-75
2023/06/21 04:40:25;;;;;;;;;6.00;6.00;;;;;21.95;100.00;101273.03;5078859;28;45387;-75
2023/06/21 04:42:54;;;;;;;;;7.00;6.00;;;;;21.92;100.00;101281.19;5079486;28;47242;-75
2023/06/21 04:45:20;;;;;;;;;6.00;6.00;;;;;21.91;100.00;101292.00;5078358;28;45348;-75
2023/06/21 04:47:48;;;;;;;;;6.33;4.00;;;;;21.87;100.00;101295.69;5078604;28;45251;-76
2023/06/21 04:50:15;;;;;;;;;4.33;4.33;;;;;21.83;100.00;101302.06;5065062;28;45262;-75
2023/06/21 04:52:40;;;;;;;;;6.33;5.00;;;;;21.80;100.00;101310.22;5068479;28;47736;-75
2023/06/21 04:55:06;;;;;;;;;6.00;4.33;;;;;21.77;100.00;101313.88;5067390;28;45347;-76
2023/06/21 04:57:32;;;;;;;;;4.67;4.67;;;;;21.77;100.00;101313.00;5066332;28;45485;-76
2023/06/21 04:59:58;;;;;;;;;7.00;4.00;;;;;21.77;100.00;101313.88;5064114;28;45423;-75
2023/06/21 05:02:24;;;;;;;;;5.33;5.33;;;;;21.79;100.00;101317.41;5058212;28;64009;-75
2023/06/21 05:04:49;;;;;;;;;6.00;6.00;;;;;21.77;100.00;101316.56;5066040;28;45390;-76
2023/06/21 05:07:15;;;;;;;;;5.00;4.33;;;;;21.75;100.00;101315.72;5076582;28;45284;-75
2023/06/21 05:09:41;;;;;;;;;4.67;4.67;;;;;21.71;100.00;101317.63;5074970;28;62179;-75
2023/06/21 05:12:08;;;;;;;;;7.00;5.00;;;;;21.67;100.00;101317.72;5075718;28;45920;-75
2023/06/21 05:14:33;;;;;;;;;6.00;6.00;;;;;21.61;100.00;101321.47;5075900;28;45197;-75
2023/06/21 05:16:59;;;;;;;;;5.00;5.00;;;;;21.60;100.00;101333.16;5076484;28;45295;-76
2023/06/21 05:19:24;;;;;;;;;3.00;3.00;;;;;21.55;100.00;101327.00;5069186;28;57807;-74
2023/06/21 05:21:49;;;;;;;;;6.00;5.00;;;;;21.58;100.00;101340.38;5072984;28;46669;-75
2023/06/21 05:24:15;;;;;;;;;4.00;4.00;;;;;21.59;100.00;101334.09;5074755;28;64619;-75
2023/06/21 05:26:44;;;;;;;;;6.00;6.00;;;;;21.63;100.00;101337.59;5071133;28;45177;-75
2023/06/21 05:29:12;;;;;;;;;5.00;5.00;;;;;21.67;100.00;101331.19;5063873;28;45293;-76
2023/06/21 05:31:40;;;;;;;;;6.00;5.00;;;;;21.70;100.00;101342.75;5068128;28;46622;-75
2023/06/21 05:34:05;;;;;;;;;5.33;5.33;;;;;21.73;100.00;101331.00;5061578;28;45406;-77
2023/06/21 05:36:31;;;;;;;;;8.00;5.67;;;;;21.74;100.00;101329.22;5073038;28;47082;-75
2023/06/21 05:38:56;;;;;;;;;6.67;6.00;;;;;21.77;100.00;101335.38;5075806;28;45399;-75
2023/06/21 05:41:21;;;;;;;;;6.00;6.00;;;;;21.82;100.00;101329.88;5072607;28;68450;-76
2023/06/21 05:43:47;;;;;;;;;7.67;7.00;;;;;21.85;100.00;101335.19;5070799;28;66242;-75
2023/06/21 05:46:12;;;;;;;;;8.00;7.00;;;;;21.85;100.00;101336.06;5071402;28;54689;-75
2023/06/21 05:48:37;;;;;;;;;8.33;8.33;;;;;21.88;100.00;101343.16;5071961;27;61621;-74
2023/06/21 05:51:03;;;;;;;;;9.67;7.00;;;;;21.83;100.00;101340.59;5076339;27;69067;-74
2023/06/21 05:53:28;;;;;;;;;9.00;7.00;;;;;21.82;100.00;101333.44;5072088;28;68454;-75
2023/06/21 05:55:54;;;;;;;;;8.00;7.00;;;;;21.84;100.00;101341.47;5073521;27;55391;-73
2023/06/21 05:58:20;;;;;;;;;7.33;6.00;;;;;21.83;100.00;101339.72;5074147;28;45395;-73
2023/06/21 06:00:46;;;;;;;;;5.33;5.33;;;;;21.80;100.00;101345.19;5075422;28;47407;-73
2023/06/21 06:03:11;;;;;;;;;6.00;6.00;;;;;21.80;100.00;101347.88;5073466;27;45558;-74
2023/06/21 06:05:37;;;;;;;;;7.00;7.00;;;;;21.76;100.00;101332.75;5073023;28;63959;-73
2023/06/21 06:08:02;;;;;;;;;7.33;7.33;;;;;21.73;100.00;101325.63;5076863;28;45632;-73
2023/06/21 06:10:27;;;;;;;;;6.67;6.67;;;;;21.77;100.00;101339.88;5075023;28;47365;-74
2023/06/21 06:12:53;;;;;;;;;4.33;4.33;;;;;21.80;100.00;101342.50;5074328;28;63647;-74
2023/06/21 06:15:18;;;;;;;;;7.00;7.00;;;;;21.80;100.00;101339.81;5074917;28;65975;-74
2023/06/21 06:17:43;;;;;;;;;6.33;6.33;;;;;21.82;100.00;101346.88;5077461;27;45614;-74
2023/06/21 06:20:09;;;;;;;;;6.00;6.00;;;;;21.83;100.00;101342.41;5184933;22;57804;-76
2023/06/21 06:22:35;;;;;;;;;6.00;6.00;;;;;21.87;100.00;101349.47;5070253;28;45482;-74
2023/06/21 06:25:01;;;;;;;;;6.00;6.00;;;;;21.87;100.00;101349.47;5073057;28;45643;-75
2023/06/21 06:27:26;;;;;;;;;8.67;7.00;;;;;21.89;100.00;101345.81;5076577;28;45573;-75
2023/06/21 06:29:52;;;;;;;;;10.33;7.00;;;;;21.86;100.00;101340.50;5068357;28;45616;-75
2023/06/21 06:32:17;;;;;;;;;7.67;6.67;;;;;21.96;100.00;101344.72;5070188;28;62829;-75
2023/06/21 06:34:42;;;;;;;;;8.00;7.00;;;;;22.01;100.00;101343.72;5067472;28;60798;-76
2023/06/21 06:37:08;;;;;;;;;8.33;6.00;;;;;22.09;100.00;101342.53;5075202;28;61252;-77
2023/06/21 06:39:33;;;;;;;;;5.00;3.33;;;;;22.15;100.00;101350.47;5075539;28;66361;-76
2023/06/21 06:41:58;;;;;;;;;6.00;6.00;;;;;22.22;100.00;101352.06;5070752;28;64318;-76
2023/06/21 06:44:24;;;;;;;;;9.00;6.00;;;;;22.27;100.00;101356.44;5069419;28;52111;-77
2023/06/21 06:46:49;;;;;;;;;7.00;7.00;;;;;22.33;100.00;101361.66;5075556;28;45609;-76
2023/06/21 06:49:14;;;;;;;;;7.00;6.00;;;;;22.40;100.00;101358.72;5074794;28;68146;-75
2023/06/21 06:51:42;;;;;;;;;8.00;7.00;;;;;22.45;100.00;101366.66;5070576;28;67873;-76
2023/06/21 06:54:08;;;;;;;;;8.67;6.00;;;;;22.49;100.00;101355.75;5076896;28;45340;-76
2023/06/21 06:56:33;;;;;;;;;6.67;6.67;;;;;22.56;100.00;101358.25;5058457;28;45343;-77
2023/06/21 06:58:58;;;;;;;;;9.67;7.67;;;;;22.60;100.00;101359.94;5074939;28;69822;-76
2023/06/21 07:01:27;;;;;;;;;7.00;7.00;;;;;22.63;100.00;101351.75;5074886;28;66658;-76
2023/06/21 07:03:52;;;;;;;;;4.67;4.67;;;;;22.69;100.00;101365.03;5074971;28;45355;-78
2023/06/21 07:06:17;;;;;;;;;7.00;5.00;;;;;22.72;100.00;101373.91;5075764;28;45444;-76
2023/06/21 07:08:44;;;;;;;;;6.00;6.00;;;;;22.76;100.00;101374.69;5069074;28;46733;-76
2023/06/21 07:11:10;;;;;;;;;7.67;6.00;;;;;22.80;100.00;101370.97;5074552;28;45320;-76
2023/06/21 07:13:35;;;;;;;;;7.67;5.67;;;;;22.88;100.00;101376.16;5056676;28;45367;-76
2023/06/21 07:16:01;;;;;;;;;5.00;5.00;;;;;22.92;100.00;101373.31;5070227;28;62236;-78
2023/06/21 07:18:26;;;;;;;;;6.00;6.00;;;;;22.95;100.00;101378.59;5072381;28;46485;-78
2023/06/21 07:20:52;;;;;;;;;6.00;4.33;;;;;22.98;100.00;101375.81;5074706;28;54928;-78
2023/06/21 07:23:18;;;;;;;;;8.33;6.00;;;;;23.06;100.00;101380.94;5075995;28;45334;-78
2023/06/21 07:25:43;;;;;;;;;6.00;4.00;;;;;23.12;100.00;101377.19;5051170;28;45459;-79
2023/06/21 07:28:09;;;;;;;;;5.00;5.00;;;;;23.14;100.00;101368.13;5071919;28;46524;-78
2023/06/21 07:30:34;;;;;;;;;5.00;3.33;;;;;23.18;100.00;101377.88;5051285;28;45484;-80
2023/06/21 07:33:00;;;;;;;;;3.00;3.00;;;;;23.19;100.00;101374.25;5075083;28;45489;-79
2023/06/21 07:35:25;;;;;;;;;4.00;4.00;;;;;23.21;100.00;101374.19;5076103;28;45453;-78
2023/06/21 07:37:50;;;;;;;;;4.33;4.33;;;;;23.20;100.00;101367.91;5073312;28;63946;-77
2023/06/21 07:40:16;;;;;;;;;3.00;3.00;;;;;23.24;100.00;101368.69;5066358;28;68620;-77
2023/06/21 07:42:41;;;;;;;;;2.33;2.00;;;;;23.28;100.00;101367.69;5079357;28;46130;-78
2023/06/21 07:45:08;;;;;;;;;4.00;4.00;;;;;23.32;100.00;101372.00;5077826;28;45292;-75
2023/06/21 07:47:33;;;;;;;;;4.00;4.00;;;;;23.35;100.00;101371.91;5071853;28;47427;-76
2023/06/21 07:49:59;;;;;;;;;5.00;5.00;;;;;23.39;100.00;101367.31;5077154;28;45496;-75
2023/06/21 07:52:25;;;;;;;;;3.00;3.00;;;;;23.43;100.00;101369.81;5075993;28;45534;-74
2023/06/21 07:54:50;;;;;;;;;4.67;4.67;;;;;23.46;100.00;101366.16;5077754;28;45605;-74
2023/06/21 07:57:16;;;;;;;;;4.00;3.33;;;;;23.48;100.00;101359.78;5076099;27;47606;-79
2023/06/21 07:59:42;;;;;;;;;4.33;4.00;;;;;23.56;100.00;101364.91;5077001;27;45469;-78
2023/06/21 08:02:09;;;;;;;;;5.00;5.00;;;;;23.60;100.00;101366.59;5077467;28;45439;-78
2023/06/21 08:04:34;;;;;;;;;3.33;3.33;;;;;23.66;100.00;101374.50;5076283;28;47248;-77
2023/06/21 08:07:00;;;;;;;;;3.33;3.33;;;;;23.69;100.00;101379.75;5079298;28;46552;-78
2023/06/21 08:09:25;;;;;;;;;4.33;3.00;;;;;23.72;100.00;101381.47;5077144;28;57310;-78
2023/06/21 08:11:50;;;;;;;;;3.67;3.67;;;;;23.78;100.00;101383.97;5073083;27;49180;-77
2023/06/21 08:14:16;;;;;;;;;3.00;3.00;;;;;23.82;100.00;101382.03;5075301;28;62976;-80
2023/06/21 08:16:41;;;;;;;;;3.33;3.33;;;;;23.87;100.00;101391.75;5077436;27;67242;-80
2023/06/21 08:19:07;;;;;;;;;3.33;3.33;;;;;23.91;100.00;101387.09;5078076;28;63940;-80
2023/06/21 08:21:32;;;;;;;;;3.33;3.33;;;;;23.96;100.00;101396.78;5078360;27;45382;-78
2023/06/21 08:23:57;;;;;;;;;4.00;4.00;;;;;24.02;100.00;101393.91;5073012;28;60454;-80
2023/06/21 08:26:23;;;;;;;;;4.67;3.33;;;;;24.05;100.00;101385.66;5076700;28;47873;-78
2023/06/21 08:28:48;;;;;;;;;3.67;3.67;;;;;24.09;100.00;101389.16;5077504;28;45394;-79
2023/06/21 08:31:14;;;;;;;;;5.67;4.00;;;;;24.11;100.00;101392.66;5072471;28;60177;-78
2023/06/21 08:33:39;;;;;;;;;3.33;3.33;;;;;24.14;100.00;101389.00;5067315;28;45329;-78
2023/06/21 08:36:06;;;;;;;;;5.00;5.00;;;;;24.18;100.00;101391.53;5074655;28;46557;-77
2023/06/21 08:38:32;;;;;;;;;3.33;3.33;;;;;24.22;100.00;101392.28;5068911;28;45470;-78
2023/06/21 08:41:02;;;;;;;;;4.33;4.00;;;;;24.22;100.00;101393.16;5060184;28;45379;-80
2023/06/21 08:43:28;;;;;;;;;3.00;3.00;;;;;24.26;100.00;101391.22;5078354;28;45367;-76
2023/06/21 08:45:54;;;;;;;;;5.00;4.00;;;;;24.29;100.00;101391.13;5060619;28;46991;-77
2023/06/21 08:48:21;;;;;;;;;4.00;3.33;;;;;24.31;100.00;101395.50;5075398;28;45353;-77
2023/06/21 08:50:48;;;;;;;;;4.00;4.00;;;;;24.31;100.00;101391.94;5078371;28;45339;-81
2023/06/21 08:53:37;;;;;;;;;3.67;3.00;;;;;24.33;100.00;101390.03;5055949;28;45529;-78
2023/06/21 08:56:04;;;;;;;;;4.33;4.33;;;;;24.38;100.00;101392.63;5078250;27;46560;-79
2023/06/21 08:58:35;;;;;;;;;4.00;4.00;;;;;24.43;100.00;101394.19;5058811;28;45467;-79
2023/06/21 09:01:03;;;;;;;;;4.00;4.00;;;;;24.50;100.00;101390.34;5065747;28;45538;-80
2023/06/21 09:03:36;;;;;;;;;4.00;4.00;;;;;24.62;100.00;101398.91;5060462;28;45528;-80
2023/06/21 09:06:03;;;;;;;;;5.67;4.67;;;;;24.77;100.00;101406.44;5076727;28;46576;-78
2023/06/21 09:08:31;;;;;;;;;5.67;4.00;;;;;24.93;100.00;101404.88;5053781;28;45522;-80
2023/06/21 09:10:57;;;;;;;;;8.00;5.00;;;;;25.12;100.00;101398.75;5055340;28;45465;-77
2023/06/21 09:13:24;;;;;;;;;5.33;3.00;;;;;25.30;100.00;101403.41;5059591;28;45754;-78
2023/06/21 09:15:51;;;;;;;;;3.67;3.67;;;;;25.43;100.00;101395.69;5076800;28;46608;-80
2023/06/21 09:18:17;;;;;;;;;3.67;3.67;;;;;25.53;100.00;101389.81;5079872;27;45498;-78
2023/06/21 09:20:47;;;;;;;;;3.67;3.67;;;;;25.62;100.00;101399.38;5077786;28;45919;-77
2023/06/21 09:23:13;;;;;;;;;4.33;4.33;;;;;25.73;100.00;101405.22;5077570;28;45469;-78
2023/06/21 09:25:38;;;;;;;;;2.33;2.33;;;;;25.85;100.00;101398.41;5074179;27;48723;-78
2023/06/21 09:28:04;;;;;;;;;5.00;5.00;;;;;25.93;100.00;101396.25;5075009;28;45453;-78
2023/06/21 09:30:29;;;;;;;;;3.00;3.00;;;;;25.96;100.00;101401.53;5068378;28;63198;-78
2023/06/21 09:32:56;;;;;;;;;3.00;3.00;;;;;26.03;100.00;101405.72;5068687;27;45619;-79
2023/06/21 09:35:22;;;;;;;;;4.00;4.00;;;;;26.10;100.00;101401.81;5068070;27;47592;-78
2023/06/21 09:37:47;;;;;;;;;4.33;4.00;;;;;26.18;100.00;101406.88;5077250;28;46286;-77
2023/06/21 09:40:12;;;;;;;;;4.00;4.00;;;;;26.26;100.00;101403.78;5077505;27;64110;-78
2023/06/21 09:42:41;;;;;;;;;5.00;5.00;;;;;26.32;100.00;101401.72;5076224;28;45417;-79
2023/06/21 09:45:10;;;;;;;;;5.00;4.67;;;;;26.41;100.00;101413.06;5074737;28;47275;-78
2023/06/21 09:47:36;;;;;;;;;4.33;4.33;;;;;26.47;100.00;101407.38;5059336;28;45419;-78
2023/06/21 09:50:08;;;;;;;;;4.67;4.67;;;;;26.55;100.00;101407.94;5075301;27;45538;-78
2023/06/21 09:52:34;;;;;;;;;4.00;4.00;;;;;26.59;100.00;101407.72;5078078;27;45454;-80
2023/06/21 09:55:01;;;;;;;;;4.33;3.67;;;;;26.64;100.00;101407.50;5059219;28;47510;-79
2023/06/21 09:57:28;;;;;;;;;4.00;4.00;;;;;26.68;100.00;101409.09;5059074;28;46820;-79
2023/06/21 09:59:53;;;;;;;;;7.00;5.00;;;;;26.72;100.00;101399.00;5077736;28;45481;-80
2023/06/21 10:02:19;;;;;;;;;5.00;3.67;;;;;26.76;100.00;101398.78;5071019;28;61725;-79
2023/06/21 10:04:44;;;;;;;;;7.00;5.67;;;;;26.78;100.00;101404.13;5058868;28;59653;-78
2023/06/21 10:07:14;;;;;;;;;3.33;3.33;;;;;26.77;100.00;101392.41;5076557;27;53823;-79
2023/06/21 10:09:40;;;;;;;;;5.33;4.67;;;;;26.75;100.00;101402.47;5077288;27;45245;-78
2023/06/21 10:12:08;;;;;;;;;4.00;4.00;;;;;26.69;100.00;101397.34;5059625;27;45434;-80
2023/06/21 10:14:33;;;;;;;;;4.33;4.33;;;;;26.64;100.00;101393.97;5074832;28;47455;-77
2023/06/21 10:16:59;;;;;;;;;4.00;4.00;;;;;26.55;100.00;101391.69;5073384;28;52739;-82
2023/06/21 10:19:26;;;;;;;;;4.67;4.00;;;;;26.56;100.00;101399.72;5057028;28;45431;-82
2023/06/21 10:21:59;;;;;;;;;4.00;4.00;;;;;26.56;100.00;101388.00;5076305;28;45899;-77
2023/06/21 10:24:36;;;;;;;;;3.67;3.67;;;;;26.63;100.00;101386.75;5070174;28;46571;-78
2023/06/21 10:27:03;;;;;;;;;5.00;3.00;;;;;26.72;100.00;101394.47;5076244;28;45617;-80
2023/06/21 10:29:29;;;;;;;;;3.33;3.00;;;;;26.78;100.00;101386.03;5076898;28;45218;-81
2023/06/21 10:32:01;;;;;;;;;4.33;3.33;;;;;26.81;100.00;101387.75;5059133;28;45331;-78
2023/06/21 10:34:31;;;;;;;;;6.00;5.00;;;;;26.80;100.00;101386.88;5059000;28;46282;-78
2023/06/21 10:37:10;;;;;;;;;4.00;4.00;;;;;26.78;100.00;101393.28;5050216;28;45433;-79
2023/06/21 10:39:35;;;;;;;;;6.00;6.00;;;;;26.81;100.00;101390.44;5058673;28;45414;-79
2023/06/21 10:42:02;;;;;;;;;4.00;4.00;;;;;26.85;100.00;101371.25;5075921;28;63710;-78
2023/06/21 10:44:28;;;;;;;;;4.33;4.33;;;;;26.90;100.00;101382.75;5075002;28;46609;-81
2023/06/21 10:46:55;;;;;;;;;5.67;3.67;;;;;26.98;100.00;101376.09;5077088;28;45217;-81
2023/06/21 10:49:21;;;;;;;;;4.00;4.00;;;;;27.04;100.00;101387.50;5058194;28;46657;-81
2023/06/21 10:51:47;;;;;;;;;6.33;3.67;;;;;27.03;100.00;101385.75;5073936;28;64300;-80
2023/06/21 10:54:12;;;;;;;;;3.33;3.33;;;;;27.07;100.00;101379.25;5075882;28;47528;-81
2023/06/21 10:56:38;;;;;;;;;3.33;3.33;;;;;27.11;100.00;101386.28;5068342;28;45409;-81
2023/06/21 10:59:04;;;;;;;;;5.00;5.00;;;;;27.12;100.00;101395.31;5071086;28;45291;-84
2023/06/21 11:01:29;;;;;;;;;4.00;4.00;;;;;27.14;100.00;101394.25;5069882;27;45430;-77
2023/06/21 11:03:55;;;;;;;;;3.00;3.00;;;;;27.14;100.00;101391.53;5074740;27;63806;-80
2023/06/21 11:06:22;;;;;;;;;12.00;10.33;;;;;27.20;100.00;101384.06;5076011;28;45414;-76
2023/06/21 11:08:48;;;;;;;;;4.33;4.33;;;;;27.28;100.00;101385.47;5074472;28;45502;-75
2023/06/21 11:11:36;;;;;;;;;6.00;5.00;;;;;27.40;100.00;101386.66;5072395;28;45481;-76
2023/06/21 11:14:04;;;;;;;;;100.00;81.50;;;;;27.48;100.00;101381.72;5074005;28;46606;-76